Time;durP1;ratioP1;P1;durP2;ratioP2;P2;SDS_P1;SDS_P2;PMS_P1;PMS_P2;Temp;Humidity;BMP_temperature;BMP_pressure;BME280_temperature;BME280_humidity;BME280_pressure;Samples;Min_cycle;Max_cycle;Signal;HPM_P1;HPM_P2
2024/01/29 00:00:35;;;;;;;2.10;1.90;;;;;;;;;;5090560;28;20039;-80
2024/01/29 00:03:01;;;;;;;3.22;2.40;;;;;;;;;;5091862;28;20496;-81
2024/01/29 00:05:27;;;;;;;2.72;1.95;;;;;;;;;;5090387;28;20407;-81
2024/01/29 00:07:53;;;;;;;4.53;2.35;;;;;;;;;;5090441;28;20055;-81
2024/01/29 00:10:21;;;;;;;3.22;2.17;;;;;;;;;;5089788;28;20119;-81
2024/01/29 00:12:48;;;;;;;3.63;2.03;;;;;;;;;;5088110;28;20043;-81
2024/01/29 00:15:14;;;;;;;3.03;2.15;;;;;;;;;;5089313;28;20040;-81
2024/01/29 00:17:40;;;;;;;3.35;2.58;;;;;;;;;;5090257;28;20044;-81
2024/01/29 00:20:06;;;;;;;3.85;2.00;;;;;;;;;;5090649;28;20050;-81
2024/01/29 00:22:32;;;;;;;3.55;2.20;;;;;;;;;;5089648;28;20051;-80
2024/01/29 00:24:58;;;;;;;4.15;2.38;;;;;;;;;;5089221;28;20400;-81
2024/01/29 00:27:24;;;;;;;3.35;2.13;;;;;;;;;;5089427;28;20078;-81
2024/01/29 00:29:50;;;;;;;3.17;1.95;;;;;;;;;;5088022;28;20556;-81
2024/01/29 00:32:16;;;;;;;2.78;2.13;;;;;;;;;;5073139;28;20044;-81
2024/01/29 00:34:43;;;;;;;3.67;1.98;;;;;;;;;;5091024;28;20504;-81
2024/01/29 00:37:09;;;;;;;3.78;1.92;;;;;;;;;;5090051;28;20044;-81
2024/01/29 00:39:35;;;;;;;2.67;1.92;;;;;;;;;;5090634;28;20051;-80
2024/01/29 00:42:01;;;;;;;3.58;2.28;;;;;;;;;;5090408;28;20636;-81
2024/01/29 00:44:28;;;;;;;3.45;2.60;;;;;;;;;;5088583;28;20032;-81
2024/01/29 00:46:54;;;;;;;3.17;2.28;;;;;;;;;;5089346;28;20114;-80
2024/01/29 00:49:21;;;;;;;3.03;2.13;;;;;;;;;;5072274;28;20560;-81
2024/01/29 00:51:47;;;;;;;3.20;2.00;;;;;;;;;;5089595;28;20048;-80
2024/01/29 00:54:13;;;;;;;3.83;2.42;;;;;;;;;;5088956;28;20063;-80
2024/01/29 00:56:39;;;;;;;3.22;2.38;;;;;;;;;;5090442;28;20071;-81
2024/01/29 00:59:05;;;;;;;3.42;2.15;;;;;;;;;;5089177;28;20118;-81
2024/01/29 01:01:31;;;;;;;3.22;1.98;;;;;;;;;;5089430;28;20821;-81
2024/01/29 01:03:57;;;;;;;3.92;2.35;;;;;;;;;;5090111;28;20036;-81
2024/01/29 01:06:23;;;;;;;4.40;2.13;;;;;;;;;;5089782;28;20497;-81
2024/01/29 01:08:48;;;;;;;3.17;1.80;;;;;;;;;;5089405;28;20059;-81
2024/01/29 01:11:14;;;;;;;3.20;2.13;;;;;;;;;;5070135;28;20068;-81
2024/01/29 01:13:40;;;;;;;3.90;1.98;;;;;;;;;;5085868;28;20044;-81
2024/01/29 01:16:06;;;;;;;3.60;1.88;;;;;;;;;;5088813;28;20072;-81
2024/01/29 01:18:32;;;;;;;4.47;2.17;;;;;;;;;;5089378;28;20511;-81
2024/01/29 01:20:59;;;;;;;2.30;2.05;;;;;;;;;;5089125;28;20040;-81
2024/01/29 01:23:25;;;;;;;3.25;2.05;;;;;;;;;;5090424;28;20044;-81
2024/01/29 01:25:51;;;;;;;3.83;2.10;;;;;;;;;;5087789;28;20046;-81
2024/01/29 01:28:17;;;;;;;3.85;2.25;;;;;;;;;;5089331;28;20036;-81
2024/01/29 01:30:43;;;;;;;3.05;2.20;;;;;;;;;;5071931;28;20557;-80
2024/01/29 01:33:09;;;;;;;3.83;2.08;;;;;;;;;;5088488;28;20135;-81
2024/01/29 01:35:35;;;;;;;2.67;2.05;;;;;;;;;;5091036;28;20488;-80
2024/01/29 01:38:01;;;;;;;3.22;1.92;;;;;;;;;;5089139;28;20048;-82
2024/01/29 01:40:27;;;;;;;3.05;1.83;;;;;;;;;;5087955;28;20039;-80
2024/01/29 01:42:53;;;;;;;5.90;2.00;;;;;;;;;;5090614;28;20040;-81
2024/01/29 01:45:19;;;;;;;1.98;1.67;;;;;;;;;;5090796;28;20476;-81
2024/01/29 01:47:44;;;;;;;4.07;1.60;;;;;;;;;;5088346;28;20146;-80
2024/01/29 01:50:11;;;;;;;2.05;1.60;;;;;;;;;;5094724;28;20028;-81
2024/01/29 01:52:38;;;;;;;2.63;1.63;;;;;;;;;;5092303;28;20048;-81
2024/01/29 01:55:04;;;;;;;2.42;1.67;;;;;;;;;;5091995;28;20107;-81
2024/01/29 01:57:30;;;;;;;2.10;1.70;;;;;;;;;;5088448;28;20044;-81
2024/01/29 01:59:56;;;;;;;2.72;1.42;;;;;;;;;;5090533;28;20035;-81
2024/01/29 02:02:23;;;;;;;3.05;2.08;;;;;;;;;;5090110;28;20062;-80
2024/01/29 02:04:49;;;;;;;2.25;1.90;;;;;;;;;;5090376;28;20523;-80
2024/01/29 02:07:15;;;;;;;2.83;1.67;;;;;;;;;;5091123;28;20039;-80
2024/01/29 02:09:41;;;;;;;3.50;1.80;;;;;;;;;;5088658;28;20051;-81
2024/01/29 02:12:09;;;;;;;2.90;1.80;;;;;;;;;;5093441;28;20126;-80
2024/01/29 02:14:35;;;;;;;3.83;1.75;;;;;;;;;;5087488;28;20043;-80
2024/01/29 02:17:01;;;;;;;2.55;1.48;;;;;;;;;;5088814;28;20666;-80
2024/01/29 02:19:27;;;;;;;3.00;1.65;;;;;;;;;;5089466;28;20036;-80
2024/01/29 02:21:54;;;;;;;2.60;1.67;;;;;;;;;;5070434;28;20047;-80
2024/01/29 02:24:20;;;;;;;3.28;1.58;;;;;;;;;;5081854;28;20047;-80
2024/01/29 02:26:47;;;;;;;2.47;1.55;;;;;;;;;;5087932;28;20040;-80
2024/01/29 02:29:14;;;;;;;2.17;1.60;;;;;;;;;;5090392;28;20120;-81
2024/01/29 02:31:40;;;;;;;1.92;1.63;;;;;;;;;;5088896;28;20046;-80
2024/01/29 02:34:06;;;;;;;3.67;1.63;;;;;;;;;;5089132;28;20085;-81
2024/01/29 02:36:32;;;;;;;4.38;2.25;;;;;;;;;;5089989;28;20132;-81
2024/01/29 02:38:58;;;;;;;2.10;1.67;;;;;;;;;;5090315;28;20119;-81
2024/01/29 02:41:24;;;;;;;2.10;1.80;;;;;;;;;;5089251;28;20036;-80
2024/01/29 02:43:50;;;;;;;3.10;1.77;;;;;;;;;;5088287;28;20035;-80
2024/01/29 02:46:18;;;;;;;3.28;1.90;;;;;;;;;;5072367;28;20044;-80
2024/01/29 02:48:44;;;;;;;2.10;1.65;;;;;;;;;;5087918;28;20040;-80
2024/01/29 02:51:10;;;;;;;2.30;1.80;;;;;;;;;;5072785;28;20044;-80
2024/01/29 02:53:36;;;;;;;3.08;1.77;;;;;;;;;;5070640;28;20115;-80
2024/01/29 02:56:02;;;;;;;2.83;2.50;;;;;;;;;;5087193;28;20044;-80
2024/01/29 02:58:29;;;;;;;4.68;2.28;;;;;;;;;;5072361;28;20073;-80
2024/01/29 03:00:55;;;;;;;4.25;2.20;;;;;;;;;;5090163;28;20051;-81
2024/01/29 03:03:21;;;;;;;3.25;2.08;;;;;;;;;;5089829;28;20042;-80
2024/01/29 03:05:47;;;;;;;3.33;2.22;;;;;;;;;;5092661;28;20061;-80
2024/01/29 03:08:13;;;;;;;3.45;2.03;;;;;;;;;;5089746;28;20040;-80
2024/01/29 03:10:39;;;;;;;2.35;1.90;;;;;;;;;;5089831;28;20039;-80
2024/01/29 03:13:05;;;;;;;4.90;1.95;;;;;;;;;;5095156;28;20051;-80
2024/01/29 03:15:31;;;;;;;2.78;2.42;;;;;;;;;;5095742;28;20072;-80
2024/01/29 03:17:57;;;;;;;3.28;1.80;;;;;;;;;;5095493;28;20098;-80
2024/01/29 03:20:23;;;;;;;4.15;2.33;;;;;;;;;;5095700;28;20048;-80
2024/01/29 03:22:49;;;;;;;2.65;1.90;;;;;;;;;;5093289;28;20051;-80
2024/01/29 03:25:15;;;;;;;2.15;1.63;;;;;;;;;;5094146;28;20505;-80
2024/01/29 03:27:41;;;;;;;3.78;2.03;;;;;;;;;;5096327;28;20040;-80
2024/01/29 03:30:07;;;;;;;3.20;2.15;;;;;;;;;;5099846;28;20057;-81
2024/01/29 03:32:33;;;;;;;2.72;2.00;;;;;;;;;;5101374;28;20166;-80
2024/01/29 03:34:59;;;;;;;2.08;1.80;;;;;;;;;;5098867;28;20076;-80
2024/01/29 03:37:25;;;;;;;3.45;2.20;;;;;;;;;;5092732;28;20028;-80
2024/01/29 03:39:51;;;;;;;2.20;2.00;;;;;;;;;;5096600;28;20036;-80
2024/01/29 03:42:17;;;;;;;3.55;1.80;;;;;;;;;;5095652;28;20055;-80
2024/01/29 03:44:43;;;;;;;3.90;2.30;;;;;;;;;;5101840;28;20054;-80
2024/01/29 03:47:09;;;;;;;4.05;2.40;;;;;;;;;;5108512;28;20040;-80
2024/01/29 03:49:35;;;;;;;3.92;2.42;;;;;;;;;;5107849;28;20039;-80
2024/01/29 03:52:01;;;;;;;2.95;1.80;;;;;;;;;;5109170;28;20044;-80
2024/01/29 03:54:27;;;;;;;3.75;1.95;;;;;;;;;;5104269;28;20097;-80
2024/01/29 03:56:53;;;;;;;3.63;2.05;;;;;;;;;;5097242;28;20036;-80
2024/01/29 03:59:19;;;;;;;3.97;2.33;;;;;;;;;;5078130;28;20043;-80
2024/01/29 04:01:45;;;;;;;2.95;2.20;;;;;;;;;;5094108;28;20043;-80
2024/01/29 04:04:11;;;;;;;2.92;2.10;;;;;;;;;;5094669;28;20458;-80
2024/01/29 04:06:40;;;;;;;3.88;2.15;;;;;;;;;;5094153;28;20032;-81
2024/01/29 04:09:09;;;;;;;2.83;2.17;;;;;;;;;;5095155;28;20056;-80
2024/01/29 04:11:36;;;;;;;4.93;1.92;;;;;;;;;;5093779;28;20162;-80
2024/01/29 04:14:02;;;;;;;4.63;2.22;;;;;;;;;;5096946;28;20044;-80
2024/01/29 04:16:28;;;;;;;3.67;2.45;;;;;;;;;;5094681;28;20100;-80
2024/01/29 04:18:54;;;;;;;4.95;2.35;;;;;;;;;;5095296;28;20089;-80
2024/01/29 04:21:20;;;;;;;5.20;2.13;;;;;;;;;;5093814;28;20040;-80
2024/01/29 04:23:46;;;;;;;4.68;2.08;;;;;;;;;;5092406;28;21238;-81
2024/01/29 04:26:12;;;;;;;3.13;2.75;;;;;;;;;;5094424;28;20553;-80
2024/01/29 04:28:38;;;;;;;5.10;3.60;;;;;;;;;;5095044;28;20035;-80
2024/01/29 04:31:04;;;;;;;4.22;2.40;;;;;;;;;;5094927;28;20246;-80
2024/01/29 04:33:30;;;;;;;4.40;2.42;;;;;;;;;;5096416;28;20087;-80
2024/01/29 04:35:56;;;;;;;4.45;2.30;;;;;;;;;;5096051;28;20052;-80
2024/01/29 04:38:22;;;;;;;4.93;2.30;;;;;;;;;;5096110;28;20040;-80
2024/01/29 04:40:48;;;;;;;2.08;1.70;;;;;;;;;;5092685;28;20047;-80
2024/01/29 04:43:14;;;;;;;3.75;2.35;;;;;;;;;;5095507;28;20032;-80
2024/01/29 04:45:41;;;;;;;3.83;2.33;;;;;;;;;;5094744;28;20047;-80
2024/01/29 04:48:07;;;;;;;4.72;2.50;;;;;;;;;;5090724;28;20123;-81
2024/01/29 04:50:33;;;;;;;2.78;2.40;;;;;;;;;;5091356;28;20556;-80
2024/01/29 04:52:59;;;;;;;6.18;2.60;;;;;;;;;;5092647;28;20127;-80
2024/01/29 04:55:25;;;;;;;4.80;3.00;;;;;;;;;;5093210;28;20078;-80
2024/01/29 04:57:51;;;;;;;3.40;2.10;;;;;;;;;;5100772;28;20099;-80
2024/01/29 05:00:17;;;;;;;3.15;2.20;;;;;;;;;;5097697;28;20051;-81
2024/01/29 05:02:43;;;;;;;2.75;2.00;;;;;;;;;;5081860;28;20040;-80
2024/01/29 05:05:09;;;;;;;5.60;2.42;;;;;;;;;;5105871;28;20125;-81
2024/01/29 05:07:35;;;;;;;3.05;1.90;;;;;;;;;;5106344;28;20845;-80
2024/01/29 05:10:02;;;;;;;2.78;1.88;;;;;;;;;;5109178;28;20052;-80
2024/01/29 05:12:28;;;;;;;2.30;2.10;;;;;;;;;;5105361;28;20113;-80
2024/01/29 05:14:54;;;;;;;3.00;2.08;;;;;;;;;;5104806;28;20043;-80
2024/01/29 05:17:20;;;;;;;2.80;1.90;;;;;;;;;;5102359;28;20047;-80
2024/01/29 05:19:47;;;;;;;3.05;2.20;;;;;;;;;;5097306;28;20125;-80
2024/01/29 05:22:13;;;;;;;2.83;2.30;;;;;;;;;;5107173;28;20086;-81
2024/01/29 05:24:39;;;;;;;2.97;2.20;;;;;;;;;;5109591;28;20032;-80
2024/01/29 05:27:05;;;;;;;4.35;2.03;;;;;;;;;;5110020;28;20047;-80
2024/01/29 05:29:31;;;;;;;3.67;2.33;;;;;;;;;;5108825;28;20110;-80
2024/01/29 05:31:57;;;;;;;4.60;2.28;;;;;;;;;;5108369;28;20511;-80
2024/01/29 05:34:23;;;;;;;4.25;2.75;;;;;;;;;;5090321;28;20043;-80
2024/01/29 05:36:49;;;;;;;3.67;3.15;;;;;;;;;;5089792;28;20036;-80
2024/01/29 05:39:15;;;;;;;3.67;2.70;;;;;;;;;;5107191;28;20055;-80
2024/01/29 05:41:41;;;;;;;3.25;2.28;;;;;;;;;;5107824;28;20062;-80
2024/01/29 05:44:08;;;;;;;5.57;2.72;;;;;;;;;;5106869;28;20040;-80
2024/01/29 05:46:34;;;;;;;3.55;2.58;;;;;;;;;;5107108;28;20044;-80
2024/01/29 05:49:00;;;;;;;3.05;2.53;;;;;;;;;;5105180;28;20081;-80
2024/01/29 05:51:26;;;;;;;4.70;2.70;;;;;;;;;;5105704;28;20584;-81
2024/01/29 05:53:52;;;;;;;5.30;2.83;;;;;;;;;;5107234;28;20040;-81
2024/01/29 05:56:18;;;;;;;3.58;2.33;;;;;;;;;;5099051;28;20043;-80
2024/01/29 05:58:46;;;;;;;4.03;2.65;;;;;;;;;;5096806;28;20040;-80
2024/01/29 06:01:12;;;;;;;4.15;2.28;;;;;;;;;;5095712;28;20424;-80
2024/01/29 06:03:38;;;;;;;2.25;1.80;;;;;;;;;;5094771;28;20085;-80
2024/01/29 06:06:05;;;;;;;3.63;2.55;;;;;;;;;;5095310;28;20051;-80
2024/01/29 06:08:31;;;;;;;3.22;2.45;;;;;;;;;;5096774;28;20044;-80
2024/01/29 06:10:57;;;;;;;4.45;2.42;;;;;;;;;;5094925;28;20048;-80
2024/01/29 06:13:24;;;;;;;3.50;2.78;;;;;;;;;;5091386;28;20055;-81
2024/01/29 06:15:50;;;;;;;3.65;2.30;;;;;;;;;;5093875;28;20082;-81
2024/01/29 06:18:16;;;;;;;3.78;2.45;;;;;;;;;;5079339;28;20047;-81
2024/01/29 06:20:42;;;;;;;5.38;3.20;;;;;;;;;;5093525;28;20453;-80
2024/01/29 06:23:09;;;;;;;4.40;2.97;;;;;;;;;;5094981;28;20040;-80
2024/01/29 06:25:35;;;;;;;4.13;2.70;;;;;;;;;;5089070;28;20127;-80
2024/01/29 06:28:02;;;;;;;4.13;3.33;;;;;;;;;;5087851;28;20074;-81
2024/01/29 06:30:28;;;;;;;3.33;2.80;;;;;;;;;;5089558;28;20036;-81
2024/01/29 06:32:54;;;;;;;4.55;2.60;;;;;;;;;;5092814;28;20477;-81
2024/01/29 06:35:22;;;;;;;2.83;2.50;;;;;;;;;;5093358;28;20079;-81
2024/01/29 06:37:48;;;;;;;2.30;2.10;;;;;;;;;;5093169;28;20405;-81
2024/01/29 06:40:14;;;;;;;3.90;2.88;;;;;;;;;;5095388;28;20048;-82
2024/01/29 06:42:40;;;;;;;4.07;2.70;;;;;;;;;;5096169;28;20040;-81
2024/01/29 06:45:10;;;;;;;3.72;2.55;;;;;;;;;;5093978;28;20044;-81
2024/01/29 06:47:36;;;;;;;3.65;2.58;;;;;;;;;;5092615;28;20481;-81
2024/01/29 06:50:02;;;;;;;4.85;2.50;;;;;;;;;;5093713;28;20500;-81
2024/01/29 06:52:28;;;;;;;4.25;2.40;;;;;;;;;;5098657;28;20112;-80
2024/01/29 06:54:54;;;;;;;3.67;2.20;;;;;;;;;;5102544;28;20504;-81
2024/01/29 06:57:20;;;;;;;3.58;2.20;;;;;;;;;;5108165;28;20032;-80
2024/01/29 06:59:49;;;;;;;5.80;2.90;;;;;;;;;;5098038;28;20044;-81
2024/01/29 07:02:15;;;;;;;4.65;3.00;;;;;;;;;;5096000;28;20117;-81
2024/01/29 07:04:42;;;;;;;5.03;2.90;;;;;;;;;;5095194;28;20093;-80
2024/01/29 07:07:08;;;;;;;5.22;2.97;;;;;;;;;;5095933;28;20494;-80
2024/01/29 07:09:34;;;;;;;3.17;2.25;;;;;;;;;;5095337;28;20044;-80
2024/01/29 07:12:00;;;;;;;3.17;2.50;;;;;;;;;;5097354;28;20131;-81
2024/01/29 07:14:26;;;;;;;4.55;3.13;;;;;;;;;;5092406;28;20048;-81
2024/01/29 07:16:52;;;;;;;3.22;2.72;;;;;;;;;;5074939;28;20043;-81
2024/01/29 07:19:23;;;;;;;5.30;2.88;;;;;;;;;;5091001;28;20400;-81
2024/01/29 07:21:50;;;;;;;;;;;;;;;;;;5125729;27;20929;-81
2024/01/29 07:24:16;;;;;;;5.95;2.97;;;;;;;;;;5085032;28;20016;-81
2024/01/29 07:26:43;;;;;;;3.97;2.53;;;;;;;;;;5089260;28;20062;-81
2024/01/29 07:29:09;;;;;;;3.67;2.83;;;;;;;;;;5093866;28;20488;-82
2024/01/29 07:31:35;;;;;;;5.15;3.20;;;;;;;;;;5091192;28;20098;-81
2024/01/29 07:34:01;;;;;;;3.88;2.55;;;;;;;;;;5092087;28;20396;-82
2024/01/29 07:36:27;;;;;;;5.78;3.05;;;;;;;;;;5092870;28;20062;-81
2024/01/29 07:38:53;;;;;;;4.68;2.90;;;;;;;;;;5087642;28;20486;-81
2024/01/29 07:41:19;;;;;;;4.60;2.80;;;;;;;;;;5086840;28;20044;-82
2024/01/29 07:43:46;;;;;;;4.05;2.92;;;;;;;;;;5087057;28;20040;-81
2024/01/29 07:46:12;;;;;;;7.35;3.40;;;;;;;;;;5077595;28;20401;-81
2024/01/29 07:48:38;;;;;;;4.57;2.72;;;;;;;;;;5077028;28;20035;-82
2024/01/29 07:51:04;;;;;;;4.30;2.83;;;;;;;;;;5092496;28;20035;-82
2024/01/29 07:53:30;;;;;;;3.58;2.63;;;;;;;;;;5075412;28;20488;-83
2024/01/29 07:55:56;;;;;;;4.18;2.60;;;;;;;;;;5086963;28;20055;-83
2024/01/29 07:58:22;;;;;;;5.03;3.22;;;;;;;;;;5094862;28;20089;-82
2024/01/29 08:00:50;;;;;;;4.53;3.08;;;;;;;;;;5092002;28;20040;-83
2024/01/29 08:03:16;;;;;;;4.93;3.58;;;;;;;;;;5092463;28;20955;-83
2024/01/29 08:05:42;;;;;;;4.95;3.75;;;;;;;;;;5077051;28;20055;-83
2024/01/29 08:08:08;;;;;;;3.60;2.95;;;;;;;;;;5094023;28;20048;-82
2024/01/29 08:10:35;;;;;;;3.97;2.95;;;;;;;;;;5076229;28;20377;-82
2024/01/29 08:13:01;;;;;;;5.13;3.15;;;;;;;;;;5089195;28;20050;-81
2024/01/29 08:15:29;;;;;;;4.82;2.53;;;;;;;;;;5091056;28;20310;-81
2024/01/29 08:17:55;;;;;;;4.22;2.90;;;;;;;;;;5091312;28;20036;-80
2024/01/29 08:20:22;;;;;;;4.60;3.13;;;;;;;;;;5090386;28;20080;-83
2024/01/29 08:22:48;;;;;;;3.72;2.65;;;;;;;;;;5088014;28;20100;-83
2024/01/29 08:25:14;;;;;;;5.05;3.20;;;;;;;;;;5088768;28;20036;-83
2024/01/29 08:27:40;;;;;;;6.22;3.15;;;;;;;;;;5071200;28;20046;-84
2024/01/29 08:30:06;;;;;;;4.50;2.78;;;;;;;;;;5084199;28;20041;-84
2024/01/29 08:32:32;;;;;;;3.40;2.88;;;;;;;;;;5087859;28;20047;-83
2024/01/29 08:34:58;;;;;;;4.65;3.47;;;;;;;;;;5083328;28;20477;-84
2024/01/29 08:37:24;;;;;;;4.05;3.50;;;;;;;;;;5088338;28;20043;-84
2024/01/29 08:39:50;;;;;;;8.27;4.32;;;;;;;;;;5072663;28;20081;-83
2024/01/29 08:42:16;;;;;;;5.32;3.58;;;;;;;;;;5091046;28;20067;-84
2024/01/29 08:44:42;;;;;;;5.60;3.45;;;;;;;;;;5091259;28;20510;-83
2024/01/29 08:47:08;;;;;;;4.90;3.25;;;;;;;;;;5087193;28;20038;-84
2024/01/29 08:49:35;;;;;;;4.50;2.72;;;;;;;;;;5089275;28;20036;-83
2024/01/29 08:52:01;;;;;;;5.00;3.30;;;;;;;;;;5095453;28;20036;-83
2024/01/29 08:54:27;;;;;;;4.13;3.65;;;;;;;;;;5070217;28;20066;-83
2024/01/29 08:56:53;;;;;;;5.93;3.65;;;;;;;;;;5088768;28;20523;-83
2024/01/29 08:59:21;;;;;;;3.97;3.40;;;;;;;;;;5089217;28;20052;-83
2024/01/29 09:01:47;;;;;;;6.03;3.15;;;;;;;;;;5084804;28;20044;-83
2024/01/29 09:04:13;;;;;;;3.08;2.63;;;;;;;;;;5104305;28;20121;-83
2024/01/29 09:06:39;;;;;;;5.40;3.72;;;;;;;;;;5092938;28;20036;-84
2024/01/29 09:09:05;;;;;;;6.15;3.97;;;;;;;;;;5070216;28;20060;-83
2024/01/29 09:11:31;;;;;;;6.22;3.97;;;;;;;;;;5073004;28;20044;-83
2024/01/29 09:13:57;;;;;;;6.35;4.00;;;;;;;;;;5086674;28;20036;-83
2024/01/29 09:16:23;;;;;;;5.18;3.53;;;;;;;;;;5086178;28;20412;-86
2024/01/29 09:18:49;;;;;;;7.18;4.68;;;;;;;;;;5087216;28;20046;-85
2024/01/29 09:21:15;;;;;;;5.80;3.35;;;;;;;;;;5071825;28;20051;-85
2024/01/29 09:23:41;;;;;;;6.20;4.00;;;;;;;;;;5071518;28;20480;-85
2024/01/29 09:26:07;;;;;;;7.28;4.00;;;;;;;;;;5086127;28;20046;-85
2024/01/29 09:28:34;;;;;;;5.25;3.35;;;;;;;;;;5088864;28;20507;-87
2024/01/29 09:31:00;;;;;;;4.72;4.00;;;;;;;;;;5088250;28;20416;-85
2024/01/29 09:33:27;;;;;;;5.80;3.75;;;;;;;;;;5086267;28;20069;-85
2024/01/29 09:35:53;;;;;;;5.20;4.55;;;;;;;;;;5090249;28;20059;-85
2024/01/29 09:38:19;;;;;;;4.97;3.50;;;;;;;;;;5089211;28;20040;-84
2024/01/29 09:40:46;;;;;;;5.00;3.90;;;;;;;;;;5090154;28;20046;-84
2024/01/29 09:43:12;;;;;;;6.40;5.07;;;;;;;;;;5086808;28;20410;-84
2024/01/29 09:45:39;;;;;;;6.57;4.50;;;;;;;;;;5071104;28;20510;-83
2024/01/29 09:48:08;;;;;;;5.78;4.30;;;;;;;;;;5090010;28;20047;-85
2024/01/29 09:50:37;;;;;;;4.75;4.18;;;;;;;;;;5091509;28;20491;-83
2024/01/29 09:53:04;;;;;;;6.15;3.70;;;;;;;;;;5095299;28;20547;-83
2024/01/29 09:55:30;;;;;;;6.93;4.00;;;;;;;;;;5095767;28;20040;-83
2024/01/29 09:57:56;;;;;;;5.15;4.00;;;;;;;;;;5095426;28;20493;-84
2024/01/29 10:00:22;;;;;;;6.07;4.07;;;;;;;;;;5094146;28;20093;-84
2024/01/29 10:02:50;;;;;;;5.43;4.35;;;;;;;;;;5095606;28;20077;-84
2024/01/29 10:05:17;;;;;;;6.65;3.55;;;;;;;;;;5090360;28;20044;-85
2024/01/29 10:07:43;;;;;;;5.68;4.32;;;;;;;;;;5096000;28;20044;-86
2024/01/29 10:10:09;;;;;;;6.85;4.32;;;;;;;;;;5096678;28;20508;-86
2024/01/29 10:12:36;;;;;;;7.68;4.55;;;;;;;;;;5097330;28;20039;-86
2024/01/29 10:15:02;;;;;;;5.90;3.78;;;;;;;;;;5098838;28;20052;-86
2024/01/29 10:17:28;;;;;;;7.40;4.10;;;;;;;;;;5099656;28;20036;-85
2024/01/29 10:19:54;;;;;;;7.68;5.05;;;;;;;;;;5066582;28;20504;-85
2024/01/29 10:22:25;;;;;;;6.57;4.32;;;;;;;;;;5069723;28;20054;-86
2024/01/29 10:25:02;;;;;;;6.85;4.45;;;;;;;;;;5068806;28;20036;-85
2024/01/29 10:27:28;;;;;;;6.35;4.85;;;;;;;;;;5069946;28;20397;-85
2024/01/29 10:29:54;;;;;;;4.82;4.28;;;;;;;;;;5078281;28;20489;-85
2024/01/29 10:32:21;;;;;;;7.03;5.03;;;;;;;;;;5086308;28;20194;-85
2024/01/29 10:34:47;;;;;;;5.78;4.25;;;;;;;;;;5069229;28;20036;-85
2024/01/29 10:37:15;;;;;;;7.10;4.55;;;;;;;;;;5089876;28;20044;-85
2024/01/29 10:39:41;;;;;;;7.53;4.55;;;;;;;;;;5074029;28;20036;-85
2024/01/29 10:42:11;;;;;;;6.68;4.38;;;;;;;;;;5090245;28;20043;-85
2024/01/29 10:44:41;;;;;;;7.15;4.75;;;;;;;;;;5071226;28;20028;-86
2024/01/29 10:47:18;;;;;;;5.45;4.70;;;;;;;;;;5092074;28;20048;-84
2024/01/29 10:49:44;;;;;;;5.90;4.20;;;;;;;;;;5089835;28;20960;-84
2024/01/29 10:52:12;;;;;;;5.60;4.05;;;;;;;;;;5094690;28;20039;-84
2024/01/29 10:54:39;;;;;;;6.10;4.30;;;;;;;;;;5092395;28;20079;-85
2024/01/29 10:57:09;;;;;;;8.45;5.10;;;;;;;;;;5091785;28;20040;-86
2024/01/29 10:59:36;;;;;;;7.75;4.97;;;;;;;;;;5092173;28;20093;-86
2024/01/29 11:02:03;;;;;;;6.32;5.13;;;;;;;;;;5076074;28;20093;-89
2024/01/29 11:04:30;;;;;;;5.35;4.07;;;;;;;;;;5073676;28;20036;-86
2024/01/29 11:07:05;;;;;;;5.75;4.55;;;;;;;;;;5074953;28;20057;-85
2024/01/29 11:09:32;;;;;;;6.05;4.47;;;;;;;;;;5090984;28;20519;-85
2024/01/29 11:11:58;;;;;;;9.48;6.07;;;;;;;;;;5096721;28;20079;-85
2024/01/29 11:14:24;;;;;;;7.90;5.35;;;;;;;;;;5093752;28;20502;-85
2024/01/29 11:16:53;;;;;;;8.27;5.57;;;;;;;;;;5090556;28;20040;-83
2024/01/29 11:19:24;;;;;;;8.63;6.03;;;;;;;;;;5088379;28;20032;-84
2024/01/29 11:21:53;;;;;;;10.40;6.55;;;;;;;;;;5090211;28;20039;-83
2024/01/29 11:24:22;;;;;;;7.22;5.80;;;;;;;;;;5091389;28;20400;-82
2024/01/29 11:26:48;;;;;;;7.25;5.35;;;;;;;;;;5092294;28;20040;-82
2024/01/29 11:29:18;;;;;;;9.32;6.03;;;;;;;;;;5089292;28;20043;-82
2024/01/29 11:31:45;;;;;;;7.38;4.90;;;;;;;;;;5091871;28;20046;-82
2024/01/29 11:34:13;;;;;;;9.63;6.15;;;;;;;;;;5090019;28;20035;-82
2024/01/29 11:36:39;;;;;;;9.02;5.80;;;;;;;;;;5090125;28;20047;-82
2024/01/29 11:39:09;;;;;;;8.40;6.10;;;;;;;;;;5088459;28;20040;-81
2024/01/29 11:41:35;;;;;;;10.32;6.43;;;;;;;;;;5088625;28;20052;-83
2024/01/29 11:44:02;;;;;;;8.32;6.32;;;;;;;;;;5094359;28;20044;-83
2024/01/29 11:46:28;;;;;;;9.45;6.13;;;;;;;;;;5090453;28;20054;-82
2024/01/29 11:48:57;;;;;;;10.13;6.85;;;;;;;;;;5088576;28;20550;-83
2024/01/29 11:51:24;;;;;;;9.35;5.90;;;;;;;;;;5091129;28;20396;-83
2024/01/29 11:53:51;;;;;;;9.10;6.82;;;;;;;;;;5091164;28;20065;-83
2024/01/29 11:56:17;;;;;;;13.65;8.52;;;;;;;;;;5092097;28;20051;-84
2024/01/29 11:58:43;;;;;;;10.60;6.22;;;;;;;;;;5093663;28;20238;-83
2024/01/29 12:01:10;;;;;;;9.55;6.50;;;;;;;;;;5090071;28;20078;-84
2024/01/29 12:03:37;;;;;;;9.27;6.85;;;;;;;;;;5088766;28;20047;-84
2024/01/29 12:06:04;;;;;;;9.05;5.43;;;;;;;;;;5087474;28;20127;-83
2024/01/29 12:08:31;;;;;;;9.75;6.88;;;;;;;;;;5088518;28;20062;-84
2024/01/29 12:11:03;;;;;;;9.43;6.93;;;;;;;;;;5088211;28;20052;-84
2024/01/29 12:13:30;;;;;;;10.02;7.05;;;;;;;;;;5090285;28;20040;-84
2024/01/29 12:15:57;;;;;;;8.45;6.18;;;;;;;;;;5088252;28;20050;-84
2024/01/29 12:18:27;;;;;;;9.05;6.07;;;;;;;;;;5088835;28;20070;-83
2024/01/29 12:20:54;;;;;;;7.90;5.90;;;;;;;;;;5092437;28;20078;-84
2024/01/29 12:23:24;;;;;;;10.80;6.20;;;;;;;;;;5090022;28;20075;-83
2024/01/29 12:25:54;;;;;;;9.45;6.47;;;;;;;;;;5069631;28;20061;-84
2024/01/29 12:28:20;;;;;;;9.13;6.30;;;;;;;;;;5072301;28;20069;-83
2024/01/29 12:31:04;;;;;;;8.15;5.70;;;;;;;;;;5090497;28;20043;-83
2024/01/29 12:33:30;;;;;;;8.20;5.68;;;;;;;;;;5091062;28;20403;-83
2024/01/29 12:35:56;;;;;;;9.07;5.97;;;;;;;;;;5100003;28;20051;-83
2024/01/29 12:38:22;;;;;;;8.77;6.13;;;;;;;;;;5092633;28;20052;-83
2024/01/29 12:40:49;;;;;;;9.90;5.40;;;;;;;;;;5100038;28;20020;-83
2024/01/29 12:43:16;;;;;;;8.90;5.97;;;;;;;;;;5107923;28;20100;-83
2024/01/29 12:45:44;;;;;;;10.27;6.55;;;;;;;;;;5111561;28;20135;-83
2024/01/29 12:48:10;;;;;;;8.98;6.57;;;;;;;;;;5110105;28;20449;-83
2024/01/29 12:50:38;;;;;;;9.57;6.05;;;;;;;;;;5107451;28;20086;-83
2024/01/29 12:53:06;;;;;;;9.50;6.35;;;;;;;;;;5109107;28;20036;-83
2024/01/29 12:55:32;;;;;;;12.68;6.32;;;;;;;;;;5112695;28;20028;-83
2024/01/29 12:57:58;;;;;;;7.22;5.72;;;;;;;;;;5109484;28;20056;-83
2024/01/29 13:00:24;;;;;;;8.50;6.22;;;;;;;;;;5101942;28;20040;-84
2024/01/29 13:02:51;;;;;;;9.95;5.70;;;;;;;;;;5100647;28;20039;-84
2024/01/29 13:05:17;;;;;;;6.47;4.57;;;;;;;;;;5083470;28;20036;-83
2024/01/29 13:07:43;;;;;;;9.13;5.65;;;;;;;;;;5099837;28;20052;-83
2024/01/29 13:10:10;;;;;;;8.77;6.07;;;;;;;;;;5096072;28;20058;-84
2024/01/29 13:12:36;;;;;;;7.88;5.43;;;;;;;;;;5096187;28;20043;-84
2024/01/29 13:15:02;;;;;;;7.38;5.90;;;;;;;;;;5081738;28;20107;-84
2024/01/29 13:17:29;;;;;;;7.18;5.72;;;;;;;;;;5098603;28;20533;-84
2024/01/29 13:19:56;;;;;;;9.13;5.65;;;;;;;;;;5098266;28;20051;-84
2024/01/29 13:22:22;;;;;;;8.40;5.75;;;;;;;;;;5098181;28;20071;-83
2024/01/29 13:24:49;;;;;;;7.35;5.55;;;;;;;;;;5098321;28;20043;-84
2024/01/29 13:27:15;;;;;;;6.65;5.43;;;;;;;;;;5098349;28;20452;-84
2024/01/29 13:29:41;;;;;;;9.15;6.03;;;;;;;;;;5099373;28;20028;-83
2024/01/29 13:32:07;;;;;;;6.22;5.63;;;;;;;;;;5099835;28;20514;-83
2024/01/29 13:34:33;;;;;;;7.35;5.20;;;;;;;;;;5081050;28;20040;-84
2024/01/29 13:36:59;;;;;;;6.20;5.50;;;;;;;;;;5106269;28;20028;-84
2024/01/29 13:39:25;;;;;;;7.38;5.43;;;;;;;;;;5105401;28;20120;-84
2024/01/29 13:41:52;;;;;;;7.47;5.35;;;;;;;;;;5105010;28;20043;-84
2024/01/29 13:44:18;;;;;;;8.63;5.18;;;;;;;;;;5088117;28;20066;-84
2024/01/29 13:46:44;;;;;;;8.57;5.97;;;;;;;;;;5078477;28;20046;-83
2024/01/29 13:49:10;;;;;;;9.35;5.80;;;;;;;;;;5096407;28;20079;-83
2024/01/29 13:51:36;;;;;;;8.10;6.32;;;;;;;;;;5096444;28;20044;-84
2024/01/29 13:54:02;;;;;;;8.82;5.57;;;;;;;;;;5095458;28;20401;-84
2024/01/29 13:56:28;;;;;;;8.68;6.30;;;;;;;;;;5093604;28;20051;-84
2024/01/29 13:58:54;;;;;;;10.82;5.85;;;;;;;;;;5094116;28;20036;-84
2024/01/29 14:01:20;;;;;;;7.53;5.32;;;;;;;;;;5093469;28;20047;-83
2024/01/29 14:03:46;;;;;;;6.63;5.68;;;;;;;;;;5094060;28;20036;-84
2024/01/29 14:06:16;;;;;;;7.57;6.22;;;;;;;;;;5092469;28;20376;-84
2024/01/29 14:08:42;;;;;;;6.65;5.28;;;;;;;;;;5091699;28;20040;-84
2024/01/29 14:11:08;;;;;;;6.43;5.13;;;;;;;;;;5094772;28;20109;-84
2024/01/29 14:13:35;;;;;;;7.93;5.63;;;;;;;;;;5095234;28;20040;-84
2024/01/29 14:16:04;;;;;;;8.52;5.70;;;;;;;;;;5093016;28;20044;-84
2024/01/29 14:18:34;;;;;;;7.28;5.47;;;;;;;;;;5093262;28;20036;-84
2024/01/29 14:21:02;;;;;;;8.13;5.88;;;;;;;;;;5093870;28;20400;-84
2024/01/29 14:23:29;;;;;;;7.50;5.85;;;;;;;;;;5091850;28;20119;-84
2024/01/29 14:25:55;;;;;;;8.13;5.38;;;;;;;;;;5093027;28;20065;-83
2024/01/29 14:28:21;;;;;;;8.20;5.20;;;;;;;;;;5094563;28;20107;-84
2024/01/29 14:30:47;;;;;;;7.85;5.55;;;;;;;;;;5092120;28;20100;-84
2024/01/29 14:33:13;;;;;;;9.02;5.47;;;;;;;;;;5094931;28;20048;-84
2024/01/29 14:35:39;;;;;;;6.25;5.32;;;;;;;;;;5074912;28;20062;-84
2024/01/29 14:38:09;;;;;;;7.10;5.05;;;;;;;;;;5093900;28;20097;-84